Time;durP1;ratioP1;P1;durP2;ratioP2;P2;SDS_P1;SDS_P2;PMS_P1;PMS_P2;Temp;Humidity;BMP_temperature;BMP_pressure;BME280_temperature;BME280_humidity;BME280_pressure;Samples;Min_cycle;Max_cycle;Signal;HPM_P1;HPM_P2
2022/09/04 00:01:16;;;;;;;6.57;4.53;;;;;;;16.72;100.00;98072.28;5032638;28;20227;-70
2022/09/04 00:04:05;;;;;;;4.80;4.17;;;;;;;16.59;100.00;98074.56;5051061;28;20232;-70
2022/09/04 00:06:42;;;;;;;4.27;3.87;;;;;;;16.57;100.00;98072.19;5074166;28;20197;-69
2022/09/04 00:09:18;;;;;;;5.27;3.73;;;;;;;16.59;100.00;98074.56;5057756;28;20243;-70
2022/09/04 00:12:03;;;;;;;4.33;3.93;;;;;;;16.60;100.00;98079.69;5074341;28;20279;-69
2022/09/04 00:14:38;;;;;;;4.40;4.00;;;;;;;16.57;100.00;98072.19;5041598;28;20185;-69
2022/09/04 00:17:40;;;;;;;5.00;3.60;;;;;;;16.51;100.00;98075.88;5074080;28;20279;-69
2022/09/04 00:20:34;;;;;;;4.20;3.23;;;;;;;16.59;100.00;98071.91;5073662;28;20228;-69
2022/09/04 00:23:18;;;;;;;6.43;3.73;;;;;;;16.57;100.00;98074.88;5056188;28;20293;-70
2022/09/04 00:26:01;;;;;;;4.23;3.80;;;;;;;16.57;100.00;98072.19;5073930;28;20232;-70
2022/09/04 00:28:40;;;;;;;4.00;3.50;;;;;;;16.52;100.00;98069.41;5073678;28;20667;-69
2022/09/04 00:31:17;;;;;;;3.50;3.20;;;;;;;16.48;100.00;98081.75;5073941;28;20228;-69
2022/09/04 00:33:59;;;;;;;3.30;3.10;;;;;;;16.44;100.00;98074.47;5056069;28;20610;-69
2022/09/04 00:36:27;;;;;;;3.90;3.03;;;;;;;16.41;100.00;98078.47;5056093;28;20196;-69
2022/09/04 00:39:00;;;;;;;3.03;2.73;;;;;;;16.38;100.00;98073.56;5073670;28;20207;-69
2022/09/04 00:41:30;;;;;;;3.67;2.87;;;;;;;16.33;100.00;98070.84;5056460;28;20193;-70
2022/09/04 00:44:06;;;;;;;3.47;3.10;;;;;;;16.27;100.00;98076.41;5073676;28;20230;-69
2022/09/04 00:46:52;;;;;;;3.93;2.97;;;;;;;16.24;100.00;98088.47;5073246;28;20218;-70
2022/09/04 00:49:40;;;;;;;3.17;2.87;;;;;;;16.19;100.00;98083.06;5073559;28;20635;-69
2022/09/04 00:52:33;;;;;;;3.50;3.20;;;;;;;16.10;100.00;98089.16;5073429;28;20189;-69
2022/09/04 00:55:36;;;;;;;5.67;3.40;;;;;;;16.10;100.00;98081.88;5055684;28;20238;-69
2022/09/04 00:58:15;;;;;;;3.50;3.20;;;;;;;16.07;100.00;98082.41;5073561;28;20281;-69
2022/09/04 01:00:45;;;;;;;3.93;3.30;;;;;;;16.07;100.00;98089.66;5073130;28;20311;-69
2022/09/04 01:03:12;;;;;;;3.40;3.17;;;;;;;16.11;100.00;98096.13;5073236;28;20258;-70
2022/09/04 01:06:00;;;;;;;4.57;3.67;;;;;;;16.16;100.00;98096.16;5073743;28;20216;-69
2022/09/04 01:08:54;;;;;;;3.63;3.33;;;;;;;16.15;100.00;98091.88;5074016;28;20279;-70
2022/09/04 01:11:42;;;;;;;4.73;4.03;;;;;;;16.23;100.00;98102.13;5056038;28;20215;-70
2022/09/04 01:14:28;;;;;;;5.47;4.13;;;;;;;16.16;100.00;98107.72;5073451;28;20283;-69
2022/09/04 01:17:10;;;;;;;4.57;4.17;;;;;;;16.17;100.00;98103.16;5073394;28;20547;-70
2022/09/04 01:19:45;;;;;;;7.70;4.10;;;;;;;16.20;100.00;98100.75;5072979;28;20242;-70
2022/09/04 01:22:24;;;;;;;4.10;3.70;;;;;;;16.19;100.00;98104.50;5073399;28;20207;-69
2022/09/04 01:24:56;;;;;;;4.70;4.30;;;;;;;16.21;100.00;98104.25;5073296;28;20705;-69
2022/09/04 01:27:30;;;;;;;4.67;4.00;;;;;;;16.17;100.00;98106.66;5072967;28;20215;-69
2022/09/04 01:30:10;;;;;;;4.63;4.23;;;;;;;16.21;100.00;98110.47;5073230;28;20235;-69
2022/09/04 01:32:45;;;;;;;5.33;4.10;;;;;;;16.15;100.00;98113.34;5073649;28;20204;-70
2022/09/04 01:35:28;;;;;;;5.27;4.30;;;;;;;16.11;100.00;98115.69;5073238;28;20199;-69
2022/09/04 01:38:20;;;;;;;4.97;4.53;;;;;;;16.08;100.00;98112.72;5073257;28;20188;-69
2022/09/04 01:41:03;;;;;;;4.80;4.40;;;;;;;16.05;100.00;98114.03;5073132;28;20315;-69
2022/09/04 01:43:31;;;;;;;4.57;4.10;;;;;;;16.02;100.00;98125.25;5073164;28;20219;-69
2022/09/04 01:46:10;;;;;;;4.40;4.00;;;;;;;15.94;100.00;98123.03;5073177;28;20211;-70
2022/09/04 01:48:52;;;;;;;7.67;3.97;;;;;;;15.90;100.00;98121.91;5073077;28;20208;-69
2022/09/04 01:51:38;;;;;;;4.37;4.00;;;;;;;15.86;100.00;98125.31;5055349;28;20199;-70
2022/09/04 01:54:34;;;;;;;4.30;3.90;;;;;;;15.81;100.00;98120.72;5073106;28;20189;-69
2022/09/04 01:57:26;;;;;;;5.10;3.90;;;;;;;15.86;100.00;98123.47;5062908;28;20213;-69
2022/09/04 02:00:32;;;;;;;5.27;4.23;;;;;;;15.84;100.00;98128.25;5053482;28;20225;-70
2022/09/04 02:03:02;;;;;;;4.30;4.00;;;;;;;15.85;100.00;98137.94;5014839;28;20345;-69
2022/09/04 02:05:53;;;;;;;4.33;3.93;;;;;;;15.84;100.00;98133.63;5067031;28;20754;-70
2022/09/04 02:08:47;;;;;;;4.43;4.00;;;;;;;15.84;100.00;98130.94;5076721;28;20191;-69
2022/09/04 02:11:18;;;;;;;6.30;4.47;;;;;;;15.78;100.00;98129.25;5058601;28;20670;-69
2022/09/04 02:14:07;;;;;;;4.70;4.40;;;;;;;15.82;100.00;98132.25;5076208;28;20203;-70
2022/09/04 02:16:56;;;;;;;5.13;4.50;;;;;;;15.80;100.00;98134.38;5076563;28;20241;-70
2022/09/04 02:19:35;;;;;;;5.33;4.50;;;;;;;15.81;100.00;98144.84;5076286;28;20255;-70
2022/09/04 02:22:11;;;;;;;5.67;4.87;;;;;;;15.78;100.00;98136.50;5058707;28;20188;-70
2022/09/04 02:24:48;;;;;;;4.87;4.47;;;;;;;15.79;100.00;98144.28;5076021;28;20327;-69
2022/09/04 02:27:26;;;;;;;5.10;4.57;;;;;;;15.80;100.00;98148.59;5076397;28;20189;-70
2022/09/04 02:30:07;;;;;;;7.23;4.90;;;;;;;15.78;100.00;98139.19;5075947;28;20612;-69
2022/09/04 02:32:44;;;;;;;5.70;4.70;;;;;;;15.75;100.00;98140.47;5076023;28;20644;-70
2022/09/04 02:35:30;;;;;;;7.33;5.20;;;;;;;15.78;100.00;98141.88;5076257;28;20188;-69
2022/09/04 02:38:21;;;;;;;4.97;4.57;;;;;;;15.78;100.00;98142.66;5076150;28;20288;-70
2022/09/04 02:41:11;;;;;;;5.50;4.90;;;;;;;15.75;100.00;98145.84;5075800;28;20736;-70
2022/09/04 02:44:10;;;;;;;5.40;4.37;;;;;;;15.76;100.00;98144.81;5076033;28;20208;-70
2022/09/04 02:47:30;;;;;;;5.20;4.53;;;;;;;15.71;100.00;98138.56;5067497;28;20212;-69
2022/09/04 02:50:37;;;;;;;5.13;4.70;;;;;;;15.62;100.00;98140.06;5032089;28;20645;-69
2022/09/04 02:53:41;;;;;;;5.40;4.77;;;;;;;15.61;100.00;98141.13;5048118;28;20204;-70
2022/09/04 02:56:24;;;;;;;5.10;4.60;;;;;;;15.65;100.00;98148.41;5075708;28;20215;-69
2022/09/04 02:59:24;;;;;;;5.43;4.93;;;;;;;15.66;100.00;98149.22;5059417;28;20275;-70
2022/09/04 03:01:58;;;;;;;5.70;5.10;;;;;;;15.64;100.00;98146.78;5075700;28;20199;-70
2022/09/04 03:04:30;;;;;;;5.50;5.10;;;;;;;15.63;100.00;98145.16;5075585;28;20308;-70
2022/09/04 03:07:24;;;;;;;5.43;4.93;;;;;;;15.63;100.00;98144.34;5075549;28;20208;-70
2022/09/04 03:09:58;;;;;;;5.93;5.43;;;;;;;15.65;100.00;98152.97;5075023;28;20252;-70
2022/09/04 03:12:35;;;;;;;5.67;5.07;;;;;;;15.62;100.00;98158.81;5075004;28;20224;-69
2022/09/04 03:15:23;;;;;;;6.87;5.27;;;;;;;15.66;100.00;98149.22;5075232;28;20200;-69
2022/09/04 03:18:06;;;;;;;6.33;5.37;;;;;;;15.65;100.00;98156.44;5075215;28;20670;-70
2022/09/04 03:21:15;;;;;;;5.80;5.20;;;;;;;15.62;100.00;98154.28;5074569;28;20719;-70
2022/09/04 03:23:58;;;;;;;5.63;5.13;;;;;;;15.61;100.00;98160.66;5073458;28;20228;-70
2022/09/04 03:26:30;;;;;;;5.17;4.77;;;;;;;15.56;100.00;98155.25;5076114;28;20199;-70
2022/09/04 03:29:18;;;;;;;5.63;5.13;;;;;;;15.52;100.00;98150.66;5075159;28;20199;-69
2022/09/04 03:31:59;;;;;;;6.13;5.50;;;;;;;15.49;100.00;98154.63;5075105;28;20184;-70
2022/09/04 03:34:46;;;;;;;5.93;5.30;;;;;;;15.51;100.00;98157.06;5075024;28;20308;-69
2022/09/04 03:37:32;;;;;;;6.23;5.13;;;;;;;15.45;100.00;98164.22;5057651;28;20193;-69
2022/09/04 03:40:29;;;;;;;5.17;4.67;;;;;;;15.37;100.00;98166.53;5074767;28;20588;-70
2022/09/04 03:43:02;;;;;;;7.53;4.70;;;;;;;15.33;100.00;98170.72;5074688;28;20283;-69
2022/09/04 03:45:54;;;;;;;5.77;4.47;;;;;;;15.34;100.00;98165.13;5074507;28;20185;-69
2022/09/04 03:48:38;;;;;;;5.03;4.57;;;;;;;15.40;100.00;98161.47;5074237;28;20280;-70
2022/09/04 03:51:09;;;;;;;6.93;5.23;;;;;;;15.37;100.00;98164.63;5074124;28;20320;-70
2022/09/04 03:53:55;;;;;;;6.20;5.60;;;;;;;15.35;100.00;98169.44;5074521;28;20235;-69
2022/09/04 03:57:01;;;;;;;5.73;5.13;;;;;;;15.36;100.00;98173.72;5074699;28;20215;-70
2022/09/04 03:59:40;;;;;;;5.37;4.87;;;;;;;15.40;100.00;98172.19;5052791;28;20232;-70
2022/09/04 04:02:28;;;;;;;5.90;5.40;;;;;;;15.37;100.00;98172.66;5074192;28;20770;-70
2022/09/04 04:05:03;;;;;;;5.80;5.17;;;;;;;15.35;100.00;98176.66;5074880;28;20299;-70
2022/09/04 04:08:26;;;;;;;5.33;4.93;;;;;;;15.30;100.00;98173.88;5074235;28;20212;-70
2022/09/04 04:11:07;;;;;;;5.73;5.00;;;;;;;15.28;100.00;98173.31;5012080;28;20808;-69
2022/09/04 04:13:42;;;;;;;5.63;4.90;;;;;;;15.32;100.00;98177.09;5074171;28;20276;-70
2022/09/04 04:16:39;;;;;;;5.17;4.67;;;;;;;15.29;100.00;98178.41;5074143;28;20280;-70
2022/09/04 04:19:38;;;;;;;5.97;5.13;;;;;;;15.29;100.00;98185.66;5073817;28;20212;-69
2022/09/04 04:22:23;;;;;;;5.47;4.93;;;;;;;15.25;100.00;98187.97;5073648;28;20211;-70
2022/09/04 04:25:34;;;;;;;5.87;5.37;;;;;;;15.25;100.00;98201.38;5056270;28;20213;-70
2022/09/04 04:28:20;;;;;;;6.83;5.53;;;;;;;15.26;100.00;98199.53;5074048;28;20276;-70
2022/09/04 04:31:12;;;;;;;5.87;5.47;;;;;;;15.26;100.00;98207.56;5057595;28;20228;-70
2022/09/04 04:34:02;;;;;;;5.37;4.97;;;;;;;15.24;100.00;98207.00;5073943;28;20193;-69
2022/09/04 04:36:44;;;;;;;6.60;5.77;;;;;;;15.19;100.00;98212.28;5073916;28;20193;-70
2022/09/04 04:39:13;;;;;;;6.40;5.20;;;;;;;15.15;100.00;98219.19;5073681;28;20220;-70
2022/09/04 04:42:06;;;;;;;6.10;5.27;;;;;;;15.20;100.00;98213.91;5073489;28;20204;-70
2022/09/04 04:47:52;;;;;;;6.47;5.00;;;;;;;15.10;100.00;98229.81;5073839;28;20622;-69
2022/09/04 04:50:26;;;;;;;4.97;4.57;;;;;;;15.06;100.00;98229.47;5073558;28;20231;-70
2022/09/04 04:53:19;;;;;;;7.03;4.90;;;;;;;15.07;100.00;98231.09;5073610;28;20586;-70
2022/09/04 04:56:04;;;;;;;6.80;4.97;;;;;;;15.10;100.00;98241.31;5073699;28;20195;-70
2022/09/04 04:58:49;;;;;;;6.13;4.90;;;;;;;15.07;100.00;98241.78;5073562;28;20275;-70
2022/09/04 05:01:36;;;;;;;8.33;5.50;;;;;;;15.13;100.00;98243.53;5073645;28;20199;-70
2022/09/04 05:04:29;;;;;;;5.57;5.07;;;;;;;15.08;100.00;98248.78;5073479;28;20217;-70
2022/09/04 05:07:13;;;;;;;6.10;5.50;;;;;;;15.07;100.00;98249.03;5055800;28;20200;-70
2022/09/04 05:10:04;;;;;;;5.73;5.10;;;;;;;15.11;100.00;98248.28;5057338;28;20319;-70
2022/09/04 05:13:06;;;;;;;5.83;5.23;;;;;;;15.14;100.00;98257.69;5055983;28;20635;-70
2022/09/04 05:15:42;;;;;;;7.53;5.60;;;;;;;15.14;100.00;98260.38;5039824;28;20662;-70
2022/09/04 05:18:19;;;;;;;6.30;5.73;;;;;;;15.04;100.00;98263.72;5073415;28;20198;-70
2022/09/04 05:20:59;;;;;;;6.53;5.93;;;;;;;15.05;100.00;98268.00;5073377;28;20243;-70
2022/09/04 05:23:37;;;;;;;6.47;5.90;;;;;;;15.06;100.00;98274.19;5056130;28;20188;-70
2022/09/04 05:26:27;;;;;;;9.13;6.50;;;;;;;15.02;100.00;98279.19;5073455;28;20602;-70
2022/09/04 05:29:03;;;;;;;6.13;5.63;;;;;;;15.03;100.00;98280.03;5055212;28;20189;-70
2022/09/04 05:31:53;;;;;;;7.90;6.13;;;;;;;15.04;100.00;98284.31;5074255;28;20208;-70
2022/09/04 05:34:35;;;;;;;7.93;6.03;;;;;;;15.12;100.00;98298.16;5077409;28;20624;-70
2022/09/04 05:37:20;;;;;;;7.13;6.10;;;;;;;15.13;100.00;98290.91;5059546;28;20224;-70
2022/09/04 05:40:04;;;;;;;6.70;5.67;;;;;;;15.19;100.00;98306.03;5077133;28;20228;-69
2022/09/04 05:42:33;;;;;;;6.10;5.10;;;;;;;15.12;100.00;98306.19;5077159;28;20208;-69
2022/09/04 05:45:05;;;;;;;4.97;4.57;;;;;;;15.21;100.00;98307.41;5077016;28;20315;-70
2022/09/04 05:47:50;;;;;;;5.10;4.70;;;;;;;15.21;100.00;98311.94;5077117;28;20199;-69
2022/09/04 05:50:49;;;;;;;4.90;4.57;;;;;;;15.18;100.00;98307.88;5043784;28;20228;-70
2022/09/04 05:53:24;;;;;;;5.93;5.43;;;;;;;15.21;100.00;98307.41;5077035;28;20189;-70
2022/09/04 05:56:09;;;;;;;6.23;5.63;;;;;;;15.27;100.00;98319.81;5077196;28;20191;-69
2022/09/04 05:58:54;;;;;;;5.57;5.07;;;;;;;15.29;100.00;98323.06;5076602;28;20279;-69
2022/09/04 06:01:26;;;;;;;5.50;5.10;;;;;;;15.37;100.00;98317.34;5076560;28;20636;-70
2022/09/04 06:03:55;;;;;;;4.87;4.37;;;;;;;15.39;100.00;98309.88;5076675;28;20219;-69
2022/09/04 06:06:37;;;;;;;5.90;5.10;;;;;;;15.52;100.00;98327.50;5076281;28;20286;-69
2022/09/04 06:09:29;;;;;;;4.90;4.50;;;;;;;15.58;100.00;98326.50;5076447;28;20200;-69
2022/09/04 06:12:21;;;;;;;5.20;4.80;;;;;;;15.64;100.00;98329.03;5059299;28;20189;-69
2022/09/04 06:15:14;;;;;;;5.00;4.60;;;;;;;15.74;100.00;98331.06;5076363;28;20544;-70
2022/09/04 06:17:55;;;;;;;4.60;4.17;;;;;;;15.75;100.00;98335.38;5073431;28;20728;-70
2022/09/04 06:20:49;;;;;;;5.43;4.93;;;;;;;15.77;100.00;98335.91;5059340;28;20233;-71
2022/09/04 06:23:53;;;;;;;5.47;4.73;;;;;;;15.80;100.00;98344.31;5061119;28;20661;-71
2022/09/04 06:26:55;;;;;;;5.30;4.70;;;;;;;15.94;100.00;98344.78;5058384;28;20199;-71
2022/09/04 06:29:41;;;;;;;5.17;4.50;;;;;;;15.99;100.00;98339.47;5060215;28;20239;-71
2022/09/04 06:32:20;;;;;;;5.10;4.43;;;;;;;16.05;100.00;98347.34;5058540;28;20192;-71
2022/09/04 06:35:01;;;;;;;5.93;4.80;;;;;;;16.13;100.00;98354.16;5076113;28;20184;-71
2022/09/04 06:38:06;;;;;;;5.30;4.60;;;;;;;16.29;100.00;98359.50;5076214;28;20275;-71
2022/09/04 06:40:41;;;;;;;5.17;4.40;;;;;;;16.25;100.00;98360.25;5052530;28;20231;-71
2022/09/04 06:43:23;;;;;;;5.33;4.90;;;;;;;16.26;100.00;98362.69;5075437;28;20194;-71
2022/09/04 06:46:05;;;;;;;4.53;4.13;;;;;;;16.36;100.00;98362.81;5075582;28;20225;-71
2022/09/04 06:48:49;;;;;;;4.97;4.57;;;;;;;16.48;100.00;98360.03;5075569;28;20639;-71
2022/09/04 06:51:45;;;;;;;5.00;4.50;;;;;;;16.42;100.00;98361.84;5057597;28;20711;-71
2022/09/04 06:54:11;;;;;;;4.87;4.53;;;;;;;16.47;100.00;98366.47;5075829;28;20207;-71
2022/09/04 06:56:46;;;;;;;5.30;4.90;;;;;;;16.51;100.00;98363.03;5075763;28;20220;-71
2022/09/04 06:59:46;;;;;;;5.03;4.60;;;;;;;16.61;100.00;98365.84;5075639;28;20722;-71
2022/09/04 07:02:21;;;;;;;5.60;5.10;;;;;;;16.71;100.00;98368.69;5075789;28;20280;-71
2022/09/04 07:05:28;;;;;;;6.83;4.93;;;;;;;16.74;100.00;98370.06;5075522;28;20304;-71
2022/09/04 07:08:07;;;;;;;4.47;4.17;;;;;;;16.77;100.00;98381.09;5021193;28;20297;-71
2022/09/04 07:10:43;;;;;;;5.17;4.67;;;;;;;16.82;100.00;98375.78;5057399;28;20221;-71
2022/09/04 07:13:25;;;;;;;4.93;4.43;;;;;;;16.90;100.00;98387.94;5058348;28;20275;-71
2022/09/04 07:16:04;;;;;;;5.50;5.00;;;;;;;16.95;100.00;98388.81;5075680;28;20208;-71
2022/09/04 07:18:39;;;;;;;5.17;4.70;;;;;;;16.93;100.00;98390.97;5075450;28;20208;-71
2022/09/04 07:21:40;;;;;;;4.80;4.37;;;;;;;16.99;100.00;98398.00;5074867;28;20239;-71
2022/09/04 07:24:44;;;;;;;4.97;4.33;;;;;;;17.12;100.00;98396.81;5075197;28;20288;-71
2022/09/04 07:27:36;;;;;;;4.73;4.40;;;;;;;17.29;100.00;98390.25;5075194;28;20202;-71
2022/09/04 07:30:11;;;;;;;4.40;4.03;;;;;;;17.36;100.00;98398.94;5074794;28;20228;-72
2022/09/04 07:33:04;;;;;;;4.87;4.37;;;;;;;17.39;100.00;98397.63;5057081;28;20200;-71
2022/09/04 07:35:39;;;;;;;4.33;4.03;;;;;;;17.46;100.00;98401.75;5074771;28;20195;-71
2022/09/04 07:38:23;;;;;;;4.50;4.10;;;;;;;17.67;100.00;98400.91;5075773;28;20202;-71
2022/09/04 07:40:57;;;;;;;4.07;3.77;;;;;;;17.61;100.00;98401.09;5057962;28;20319;-71
2022/09/04 07:43:39;;;;;;;4.90;4.40;;;;;;;17.63;100.00;98412.41;5074814;28;20288;-70
2022/09/04 07:46:20;;;;;;;6.77;4.70;;;;;;;17.71;100.00;98415.44;5074582;28;20223;-71
2022/09/04 07:48:54;;;;;;;4.60;4.20;;;;;;;17.77;100.00;98409.03;5057009;28;20223;-71
2022/09/04 07:51:30;;;;;;;4.00;3.70;;;;;;;17.83;100.00;98420.66;5074401;28;20275;-71
2022/09/04 07:54:01;;;;;;;4.90;4.40;;;;;;;17.84;100.00;98423.09;5056749;28;20189;-71
2022/09/04 07:56:40;;;;;;;4.33;4.03;;;;;;;17.83;100.00;98426.84;5073963;28;20196;-71
2022/09/04 07:59:36;;;;;;;4.47;4.07;;;;;;;17.84;100.00;98424.97;5072435;28;20544;-71
2022/09/04 08:02:09;;;;;;;4.13;3.70;;;;;;;17.93;100.00;98432.31;5058303;28;20272;-71
2022/09/04 08:05:01;;;;;;;4.87;4.47;;;;;;;18.03;100.00;98429.72;5074238;28;20224;-71
2022/09/04 08:07:33;;;;;;;4.20;3.80;;;;;;;18.32;100.00;98435.59;5050480;28;20295;-71
2022/09/04 08:10:21;;;;;;;4.27;3.57;;;;;;;18.28;100.00;98437.97;5075035;28;20224;-71
2022/09/04 08:13:03;;;;;;;4.20;3.90;;;;;;;18.27;100.00;98435.56;5074133;28;20564;-71
2022/09/04 08:15:42;;;;;;;3.83;3.60;;;;;;;18.33;100.00;98438.03;5074281;28;20196;-71
2022/09/04 08:18:23;;;;;;;4.10;3.50;;;;;;;18.57;100.00;98444.66;5091534;27;20549;-70
2022/09/04 08:21:15;;;;;;;3.90;3.40;;;;;;;18.67;100.00;98447.41;5091171;28;20228;-70
2022/09/04 08:23:55;;;;;;;4.13;3.20;;;;;;;18.73;100.00;98457.13;5090532;28;20288;-70
2022/09/04 08:26:42;;;;;;;3.93;3.43;;;;;;;18.99;100.00;98445.41;5090451;28;20587;-70
2022/09/04 08:29:15;;;;;;;4.03;3.73;;;;;;;18.97;100.00;98452.13;5090684;28;20266;-70
2022/09/04 08:31:47;;;;;;;4.03;3.63;;;;;;;19.11;100.00;98455.97;5090453;28;20666;-69
2022/09/04 08:34:46;;;;;;;3.30;2.93;;;;;;;19.21;100.00;98456.81;5090484;28;20207;-70
2022/09/04 08:37:37;;;;;;;4.07;3.20;;;;;;;19.21;100.00;98462.22;5089211;28;20208;-70
2022/09/04 08:40:32;;;;;;;3.13;2.87;;;;;;;19.25;100.00;98463.34;5089209;28;20259;-69
2022/09/04 08:43:15;;;;;;;3.60;2.77;;;;;;;19.26;100.00;98470.34;5090454;28;20275;-69
2022/09/04 08:46:04;;;;;;;4.17;2.90;;;;;;;19.37;100.00;98463.09;5090345;28;20271;-70
2022/09/04 08:48:34;;;;;;;3.90;2.93;;;;;;;19.43;100.00;98460.16;5089094;28;20188;-69
2022/09/04 08:51:00;;;;;;;3.80;2.47;;;;;;;19.41;100.00;98456.13;5089963;28;20228;-70
2022/09/04 08:53:54;;;;;;;3.10;2.90;;;;;;;19.55;100.00;98474.19;5089840;28;20295;-70
2022/09/04 08:56:26;;;;;;;2.70;2.50;;;;;;;19.72;100.00;98467.78;5090159;28;20212;-69
2022/09/04 08:59:30;;;;;;;2.40;2.20;;;;;;;19.72;100.00;98467.78;5090120;28;20279;-69
2022/09/04 09:02:15;;;;;;;2.57;2.27;;;;;;;19.94;98.98;98473.75;5090036;28;20223;-69
2022/09/04 09:04:50;;;;;;;3.87;2.40;;;;;;;20.11;98.21;98466.25;5090090;28;20275;-69
2022/09/04 09:07:23;;;;;;;4.63;2.53;;;;;;;20.19;99.94;98471.91;5090004;28;20244;-69
2022/09/04 09:09:55;;;;;;;2.77;2.40;;;;;;;20.36;100.00;98455.41;5089625;28;20254;-70
2022/09/04 09:12:50;;;;;;;2.70;2.37;;;;;;;20.45;100.00;98464.59;5089711;28;20204;-70
2022/09/04 09:15:38;;;;;;;2.40;2.23;;;;;;;20.75;97.20;98461.84;5089300;28;20204;-69
2022/09/04 09:18:34;;;;;;;2.13;2.03;;;;;;;20.69;99.26;98463.75;5088988;28;20228;-70
2022/09/04 09:21:09;;;;;;;1.60;1.50;;;;;;;20.52;88.26;98460.53;5089387;28;20224;-70
2022/09/04 09:23:51;;;;;;;1.80;1.50;;;;;;;20.43;90.80;98470.25;5089103;28;20243;-69
2022/09/04 09:26:35;;;;;;;2.03;1.60;;;;;;;20.44;91.10;98471.88;5089572;28;20220;-70
2022/09/04 09:29:40;;;;;;;1.97;1.77;;;;;;;20.27;93.61;98459.75;5078088;28;20203;-70
2022/09/04 09:32:22;;;;;;;2.87;1.80;;;;;;;20.48;91.52;98464.06;5076087;28;20185;-69
2022/09/04 09:35:03;;;;;;;1.63;1.50;;;;;;;20.46;87.08;98468.91;5075988;28;20204;-70
2022/09/04 09:37:45;;;;;;;1.50;1.40;;;;;;;20.49;82.27;98468.38;5075552;28;20728;-69
2022/09/04 09:40:40;;;;;;;2.17;1.30;;;;;;;20.56;80.46;98464.28;5075658;28;20224;-70
2022/09/04 09:43:38;;;;;;;2.27;1.57;;;;;;;20.91;84.93;98461.56;5075692;28;20184;-70
2022/09/04 09:46:15;;;;;;;2.70;1.40;;;;;;;21.21;77.16;98461.41;5075350;28;20666;-70
2022/09/04 09:49:03;;;;;;;3.57;1.87;;;;;;;21.42;79.08;98462.97;5074373;28;20189;-70
2022/09/04 09:51:38;;;;;;;2.30;1.50;;;;;;;21.53;81.20;98461.81;5075537;28;20193;-70
2022/09/04 09:54:23;;;;;;;1.70;1.60;;;;;;;21.49;82.56;98449.13;5075293;28;20207;-70
2022/09/04 09:57:01;;;;;;;1.60;1.50;;;;;;;21.57;78.37;98454.75;5075443;28;20213;-70
2022/09/04 09:59:37;;;;;;;2.83;1.73;;;;;;;21.45;76.72;98461.59;5075068;28;20235;-70
2022/09/04 10:02:31;;;;;;;1.70;1.60;;;;;;;22.01;73.72;98452.88;5074908;28;20231;-70
2022/09/04 10:05:40;;;;;;;1.70;1.50;;;;;;;21.90;74.65;98459.47;5075176;28;20613;-70
2022/09/04 10:08:26;;;;;;;2.20;1.50;;;;;;;22.54;70.10;98456.50;5067456;28;20207;-69
2022/09/04 10:11:29;;;;;;;2.40;1.50;;;;;;;22.81;69.81;98454.06;5075216;28;20224;-70
2022/09/04 10:14:51;;;;;;;2.88;1.40;;;;;;;22.57;69.04;98453.22;5075270;28;20291;-70
2022/09/04 10:17:43;;;;;;;2.08;1.30;;;;;;;22.32;69.41;98454.22;5045146;28;20714;-70
2022/09/04 10:20:25;;;;;;;1.35;1.25;;;;;;;22.49;69.59;98456.56;5064935;28;20228;-70
2022/09/04 10:23:06;;;;;;;1.92;1.40;;;;;;;22.14;70.71;98448.69;5074663;28;20677;-69
2022/09/04 10:25:41;;;;;;;1.38;1.27;;;;;;;22.31;69.99;98447.22;5074670;28;20682;-70
2022/09/04 10:28:29;;;;;;;2.07;1.40;;;;;;;22.24;66.12;98445.94;5075040;28;20204;-70
2022/09/04 10:31:11;;;;;;;2.60;1.40;;;;;;;21.88;64.97;98448.09;5074728;28;20229;-70
2022/09/04 10:34:02;;;;;;;1.87;1.23;;;;;;;22.42;64.40;98443.31;5074856;28;20284;-70
2022/09/04 10:36:47;;;;;;;1.60;1.50;;;;;;;22.35;67.13;98439.31;5074767;28;20413;-70
2022/09/04 10:43:21;;;;;;;1.45;1.35;;;;;;;22.68;64.88;98442.00;5074025;28;20168;-70
2022/09/04 10:46:16;;;;;;;1.63;1.30;;;;;;;22.81;63.81;98446.75;5074561;28;20254;-70
2022/09/04 10:49:05;;;;;;;1.65;1.48;;;;;;;23.27;61.63;98439.69;5064666;28;20567;-70
2022/09/04 10:51:37;;;;;;;1.95;1.63;;;;;;;23.10;60.04;98446.66;5074028;28;20189;-70
2022/09/04 10:54:22;;;;;;;1.95;1.25;;;;;;;23.14;62.53;98450.41;5074433;28;20611;-70
2022/09/04 10:56:48;;;;;;;2.22;1.40;;;;;;;23.22;63.83;98444.38;5074207;28;20232;-70
2022/09/04 10:59:39;;;;;;;1.50;1.40;;;;;;;22.73;62.11;98436.50;5073957;28;20725;-70
2022/09/04 11:02:31;;;;;;;1.30;1.20;;;;;;;23.27;61.08;98442.41;5074140;28;20193;-70
2022/09/04 11:05:36;;;;;;;1.35;1.30;;;;;;;23.26;61.29;98442.69;5074244;28;20304;-70
2022/09/04 11:08:12;;;;;;;1.95;1.30;;;;;;;22.97;60.17;98436.53;5074114;28;20208;-71
2022/09/04 11:11:11;;;;;;;1.23;1.20;;;;;;;23.43;60.75;98426.75;5074252;28;20679;-71
2022/09/04 11:14:24;;;;;;;1.55;1.33;;;;;;;23.62;59.92;98441.13;5074297;28;20270;-70
2022/09/04 11:17:12;;;;;;;2.42;1.48;;;;;;;24.01;61.26;98434.28;5073515;28;20231;-70
2022/09/04 11:20:16;;;;;;;1.40;1.30;;;;;;;23.02;56.26;98442.69;5072612;28;20224;-70
2022/09/04 11:23:21;;;;;;;1.10;1.10;;;;;;;22.64;57.28;98430.09;5073830;28;20204;-70
2022/09/04 11:25:48;;;;;;;2.80;1.20;;;;;;;22.56;61.40;98436.16;5073380;28;20287;-70
2022/09/04 11:28:39;;;;;;;1.20;1.08;;;;;;;22.45;59.22;98428.38;5073745;28;20296;-70
2022/09/04 11:31:23;;;;;;;1.77;1.20;;;;;;;22.30;61.61;98431.22;5073005;28;20228;-70
2022/09/04 11:34:25;;;;;;;1.30;1.20;;;;;;;22.36;61.31;98430.91;5073442;28;20199;-70
2022/09/04 11:37:29;;;;;;;1.10;1.10;;;;;;;22.68;59.12;98424.91;5072419;28;20243;-70
2022/09/04 11:40:15;;;;;;;1.30;1.20;;;;;;;22.62;59.58;98421.47;5073552;28;20315;-70
2022/09/04 11:43:17;;;;;;;1.13;1.13;;;;;;;22.76;59.36;98432.41;5072033;28;20663;-71
2022/09/04 11:45:56;;;;;;;1.40;1.30;;;;;;;22.79;57.43;98423.72;5072094;28;20303;-70
2022/09/04 11:48:41;;;;;;;2.28;1.20;;;;;;;22.62;57.99;98435.03;5073358;28;20291;-70
2022/09/04 11:51:51;;;;;;;1.90;1.15;;;;;;;22.44;60.58;98432.19;5072792;28;20606;-70
2022/09/04 11:54:41;;;;;;;1.52;1.20;;;;;;;22.33;60.33;98439.59;5073520;28;20212;-70
2022/09/04 11:57:13;;;;;;;1.20;1.20;;;;;;;22.43;58.99;98433.28;5072251;28;20215;-70
2022/09/04 12:00:11;;;;;;;1.92;1.45;;;;;;;22.74;56.16;98431.91;5073337;28;20228;-71
2022/09/04 12:02:59;;;;;;;1.77;1.10;;;;;;;23.42;54.37;98422.41;5073471;28;20619;-70
2022/09/04 12:05:39;;;;;;;1.10;1.00;;;;;;;23.61;57.13;98431.38;5073094;28;20283;-71
2022/09/04 12:08:30;;;;;;;1.95;1.48;;;;;;;23.71;55.15;98437.47;5071761;28;20193;-70
2022/09/04 12:11:17;;;;;;;1.30;1.10;;;;;;;23.45;54.53;98432.66;5072872;28;20706;-71
2022/09/04 12:14:21;;;;;;;2.40;1.50;;;;;;;23.28;54.62;98437.78;5073115;28;20184;-71
2022/09/04 12:17:26;;;;;;;1.40;1.30;;;;;;;23.06;54.35;98440.22;5072740;28;20304;-72
2022/09/04 12:20:30;;;;;;;1.25;1.15;;;;;;;23.02;55.95;98436.47;5066654;28;20694;-71
2022/09/04 12:23:31;;;;;;;1.50;1.40;;;;;;;23.22;53.87;98437.06;5072999;28;20265;-70
2022/09/04 12:26:12;;;;;;;1.75;1.20;;;;;;;23.36;53.96;98437.94;5073591;28;20224;-72
2022/09/04 12:28:57;;;;;;;2.15;1.42;;;;;;;23.60;55.03;98438.69;5072557;28;20631;-69
2022/09/04 12:31:32;;;;;;;1.55;1.30;;;;;;;23.60;55.16;98430.56;5072580;28;20742;-69
2022/09/04 12:34:19;;;;;;;2.53;1.52;;;;;;;23.75;54.06;98432.25;5073087;28;20192;-69
2022/09/04 12:37:04;;;;;;;1.17;1.08;;;;;;;23.96;51.61;98434.38;5072712;28;20188;-70
2022/09/04 12:40:13;;;;;;;1.92;1.10;;;;;;;23.93;52.29;98445.03;5072603;28;20592;-71
2022/09/04 12:43:15;;;;;;;1.10;1.10;;;;;;;23.45;53.94;98428.06;5061063;28;20610;-69
2022/09/04 12:46:05;;;;;;;1.25;1.15;;;;;;;23.46;52.23;98434.28;5060597;28;20303;-69
2022/09/04 12:48:34;;;;;;;1.33;1.10;;;;;;;23.53;51.77;98437.44;5072679;28;20201;-70
2022/09/04 12:51:15;;;;;;;1.25;1.15;;;;;;;23.53;53.21;98437.44;5072712;28;20229;-70
2022/09/04 12:54:25;;;;;;;1.50;1.17;;;;;;;23.56;51.63;98443.09;5071562;28;20216;-70
2022/09/04 12:57:21;;;;;;;1.10;1.10;;;;;;;23.52;52.17;98438.56;5071860;28;20295;-70
2022/09/04 13:00:14;;;;;;;1.35;1.25;;;;;;;23.26;53.49;98434.56;5070946;28;20311;-70